sensor_id;sensor_type;location;lat;lon;timestamp;temperature;humidity
33645;DHT22;19986;48.190;16.366;2023-06-19T00:02:11;23.20;96.20
33645;DHT22;19986;48.190;16.366;2023-06-19T00:04:36;23.20;96.20
33645;DHT22;19986;48.190;16.366;2023-06-19T00:07:03;23.20;96.30
33645;DHT22;19986;48.190;16.366;2023-06-19T00:09:30;23.10;96.30
33645;DHT22;19986;48.190;16.366;2023-06-19T00:11:56;23.10;96.40
33645;DHT22;19986;48.190;16.366;2023-06-19T00:14:21;23.00;96.50
33645;DHT22;19986;48.190;16.366;2023-06-19T00:16:47;23.00;96.60
33645;DHT22;19986;48.190;16.366;2023-06-19T00:19:13;23.00;96.70
33645;DHT22;19986;48.190;16.366;2023-06-19T00:21:39;23.00;96.70
33645;DHT22;19986;48.190;16.366;2023-06-19T00:24:05;22.90;96.80
33645;DHT22;19986;48.190;16.366;2023-06-19T00:26:31;23.00;96.80
33645;DHT22;19986;48.190;16.366;2023-06-19T00:28:57;22.90;96.90
33645;DHT22;19986;48.190;16.366;2023-06-19T00:31:23;22.90;96.90
33645;DHT22;19986;48.190;16.366;2023-06-19T00:33:49;22.90;97.00
33645;DHT22;19986;48.190;16.366;2023-06-19T00:36:17;22.90;97.00
33645;DHT22;19986;48.190;16.366;2023-06-19T00:38:47;22.80;97.00
33645;DHT22;19986;48.190;16.366;2023-06-19T00:41:15;22.80;97.10
33645;DHT22;19986;48.190;16.366;2023-06-19T00:43:41;22.80;97.10
33645;DHT22;19986;48.190;16.366;2023-06-19T00:46:07;22.80;97.10
33645;DHT22;19986;48.190;16.366;2023-06-19T00:48:34;22.80;97.20
33645;DHT22;19986;48.190;16.366;2023-06-19T00:51:00;22.70;97.20
33645;DHT22;19986;48.190;16.366;2023-06-19T00:53:26;22.70;97.30
33645;DHT22;19986;48.190;16.366;2023-06-19T00:55:53;22.70;97.40
33645;DHT22;19986;48.190;16.366;2023-06-19T00:58:21;22.70;97.40
33645;DHT22;19986;48.190;16.366;2023-06-19T01:00:50;22.70;97.60
33645;DHT22;19986;48.190;16.366;2023-06-19T01:03:16;22.70;97.60
33645;DHT22;19986;48.190;16.366;2023-06-19T01:05:43;22.60;97.60
33645;DHT22;19986;48.190;16.366;2023-06-19T01:10:53;22.70;97.60
33645;DHT22;19986;48.190;16.366;2023-06-19T01:15:56;22.60;97.70
33645;DHT22;19986;48.190;16.366;2023-06-19T01:18:22;22.60;97.80
33645;DHT22;19986;48.190;16.366;2023-06-19T01:20:49;22.50;97.90
33645;DHT22;19986;48.190;16.366;2023-06-19T01:23:15;22.50;98.00
33645;DHT22;19986;48.190;16.366;2023-06-19T01:25:41;22.50;98.10
33645;DHT22;19986;48.190;16.366;2023-06-19T01:28:09;22.50;98.10
33645;DHT22;19986;48.190;16.366;2023-06-19T01:30:42;22.50;98.20
33645;DHT22;19986;48.190;16.366;2023-06-19T01:33:20;22.40;98.20
33645;DHT22;19986;48.190;16.366;2023-06-19T01:35:50;22.40;98.30
33645;DHT22;19986;48.190;16.366;2023-06-19T01:38:21;22.30;98.30
33645;DHT22;19986;48.190;16.366;2023-06-19T01:40:49;22.40;98.40
33645;DHT22;19986;48.190;16.366;2023-06-19T01:43:16;22.30;98.40
33645;DHT22;19986;48.190;16.366;2023-06-19T01:45:42;22.30;98.40
33645;DHT22;19986;48.190;16.366;2023-06-19T01:48:10;22.30;98.50
33645;DHT22;19986;48.190;16.366;2023-06-19T01:50:37;22.30;98.50
33645;DHT22;19986;48.190;16.366;2023-06-19T01:53:03;22.30;98.50
33645;DHT22;19986;48.190;16.366;2023-06-19T01:55:30;22.30;98.60
33645;DHT22;19986;48.190;16.366;2023-06-19T01:57:56;22.20;98.60
33645;DHT22;19986;48.190;16.366;2023-06-19T02:00:22;22.30;98.70
33645;DHT22;19986;48.190;16.366;2023-06-19T02:02:49;22.20;98.70
33645;DHT22;19986;48.190;16.366;2023-06-19T02:05:15;22.20;98.80
33645;DHT22;19986;48.190;16.366;2023-06-19T02:07:41;22.10;98.90
33645;DHT22;19986;48.190;16.366;2023-06-19T02:10:09;22.10;99.00
33645;DHT22;19986;48.190;16.366;2023-06-19T02:12:36;22.10;99.00
33645;DHT22;19986;48.190;16.366;2023-06-19T02:15:05;22.10;99.00
33645;DHT22;19986;48.190;16.366;2023-06-19T02:17:31;22.10;99.10
33645;DHT22;19986;48.190;16.366;2023-06-19T02:19:58;22.10;99.10
33645;DHT22;19986;48.190;16.366;2023-06-19T02:22:24;22.10;99.20
33645;DHT22;19986;48.190;16.366;2023-06-19T02:24:51;22.00;99.20
33645;DHT22;19986;48.190;16.366;2023-06-19T02:27:17;22.00;99.30
33645;DHT22;19986;48.190;16.366;2023-06-19T02:29:44;22.00;99.30
33645;DHT22;19986;48.190;16.366;2023-06-19T02:32:10;22.00;99.30
33645;DHT22;19986;48.190;16.366;2023-06-19T02:34:36;22.00;99.30
33645;DHT22;19986;48.190;16.366;2023-06-19T02:37:03;22.00;99.40
33645;DHT22;19986;48.190;16.366;2023-06-19T02:39:30;22.00;99.40
33645;DHT22;19986;48.190;16.366;2023-06-19T02:41:56;22.00;99.50
33645;DHT22;19986;48.190;16.366;2023-06-19T02:44:22;22.00;99.50
33645;DHT22;19986;48.190;16.366;2023-06-19T02:46:49;22.00;99.50
33645;DHT22;19986;48.190;16.366;2023-06-19T02:49:15;22.00;99.50
33645;DHT22;19986;48.190;16.366;2023-06-19T02:51:41;22.00;99.60
33645;DHT22;19986;48.190;16.366;2023-06-19T02:54:07;22.00;99.90
33645;DHT22;19986;48.190;16.366;2023-06-19T02:56:33;22.00;99.90
33645;DHT22;19986;48.190;16.366;2023-06-19T02:58:59;21.90;99.90
33645;DHT22;19986;48.190;16.366;2023-06-19T03:01:24;21.90;99.90
33645;DHT22;19986;48.190;16.366;2023-06-19T03:03:50;21.80;99.90
33645;DHT22;19986;48.190;16.366;2023-06-19T03:06:17;21.90;99.90
33645;DHT22;19986;48.190;16.366;2023-06-19T03:08:43;21.90;99.90
33645;DHT22;19986;48.190;16.366;2023-06-19T03:11:10;21.90;99.90
33645;DHT22;19986;48.190;16.366;2023-06-19T03:13:53;21.80;99.90
33645;DHT22;19986;48.190;16.366;2023-06-19T03:16:20;21.90;99.90
33645;DHT22;19986;48.190;16.366;2023-06-19T03:18:47;21.90;99.90
33645;DHT22;19986;48.190;16.366;2023-06-19T03:21:13;21.90;99.90
33645;DHT22;19986;48.190;16.366;2023-06-19T03:23:40;21.90;99.90
33645;DHT22;19986;48.190;16.366;2023-06-19T03:26:09;22.00;99.90
33645;DHT22;19986;48.190;16.366;2023-06-19T03:28:38;22.00;99.90
33645;DHT22;19986;48.190;16.366;2023-06-19T03:31:04;22.00;99.90
33645;DHT22;19986;48.190;16.366;2023-06-19T03:33:29;22.00;99.90
33645;DHT22;19986;48.190;16.366;2023-06-19T03:35:55;22.00;99.90
33645;DHT22;19986;48.190;16.366;2023-06-19T03:38:22;22.00;99.90
33645;DHT22;19986;48.190;16.366;2023-06-19T03:40:48;22.00;99.90
33645;DHT22;19986;48.190;16.366;2023-06-19T03:43:14;22.00;99.90
33645;DHT22;19986;48.190;16.366;2023-06-19T03:45:40;22.10;99.90
33645;DHT22;19986;48.190;16.366;2023-06-19T03:48:06;22.10;99.90
33645;DHT22;19986;48.190;16.366;2023-06-19T03:50:33;22.10;99.90
33645;DHT22;19986;48.190;16.366;2023-06-19T03:53:00;22.10;99.90
33645;DHT22;19986;48.190;16.366;2023-06-19T03:55:26;22.10;99.90
33645;DHT22;19986;48.190;16.366;2023-06-19T03:57:52;22.20;99.90
33645;DHT22;19986;48.190;16.366;2023-06-19T04:00:18;22.20;99.90
33645;DHT22;19986;48.190;16.366;2023-06-19T04:02:44;22.20;99.90
33645;DHT22;19986;48.190;16.366;2023-06-19T04:05:13;22.20;99.90
33645;DHT22;19986;48.190;16.366;2023-06-19T04:07:39;22.30;99.90
33645;DHT22;19986;48.190;16.366;2023-06-19T04:10:05;22.20;99.90
33645;DHT22;19986;48.190;16.366;2023-06-19T04:12:31;22.30;99.90
33645;DHT22;19986;48.190;16.366;2023-06-19T04:14:57;22.30;99.90
33645;DHT22;19986;48.190;16.366;2023-06-19T04:17:23;22.40;99.90
33645;DHT22;19986;48.190;16.366;2023-06-19T04:19:49;22.40;99.80
33645;DHT22;19986;48.190;16.366;2023-06-19T04:22:15;22.40;99.70
33645;DHT22;19986;48.190;16.366;2023-06-19T04:24:40;22.50;99.70
33645;DHT22;19986;48.190;16.366;2023-06-19T04:27:07;22.50;99.70
33645;DHT22;19986;48.190;16.366;2023-06-19T04:29:34;22.60;99.60
33645;DHT22;19986;48.190;16.366;2023-06-19T04:32:01;22.60;99.60
33645;DHT22;19986;48.190;16.366;2023-06-19T04:34:29;22.60;99.50
33645;DHT22;19986;48.190;16.366;2023-06-19T04:36:55;22.70;99.50
33645;DHT22;19986;48.190;16.366;2023-06-19T04:39:24;22.80;99.40
33645;DHT22;19986;48.190;16.366;2023-06-19T04:41:50;22.80;99.20
33645;DHT22;19986;48.190;16.366;2023-06-19T04:44:16;23.00;99.20
33645;DHT22;19986;48.190;16.366;2023-06-19T04:46:43;23.00;99.20
33645;DHT22;19986;48.190;16.366;2023-06-19T04:49:12;22.90;99.30
33645;DHT22;19986;48.190;16.366;2023-06-19T04:51:41;23.00;99.40
33645;DHT22;19986;48.190;16.366;2023-06-19T04:54:07;23.00;99.30
33645;DHT22;19986;48.190;16.366;2023-06-19T04:56:32;23.60;99.70
33645;DHT22;19986;48.190;16.366;2023-06-19T04:58:58;25.40;98.30
33645;DHT22;19986;48.190;16.366;2023-06-19T05:01:27;27.40;96.40
33645;DHT22;19986;48.190;16.366;2023-06-19T05:03:56;29.20;94.10
33645;DHT22;19986;48.190;16.366;2023-06-19T05:06:25;30.70;92.40
33645;DHT22;19986;48.190;16.366;2023-06-19T05:08:51;32.20;90.70
33645;DHT22;19986;48.190;16.366;2023-06-19T05:11:18;33.40;88.50
33645;DHT22;19986;48.190;16.366;2023-06-19T05:13:44;34.20;85.60
33645;DHT22;19986;48.190;16.366;2023-06-19T05:16:10;35.00;83.90
33645;DHT22;19986;48.190;16.366;2023-06-19T05:18:37;35.70;82.10
33645;DHT22;19986;48.190;16.366;2023-06-19T05:21:03;36.20;80.40
33645;DHT22;19986;48.190;16.366;2023-06-19T05:23:29;36.30;79.50
33645;DHT22;19986;48.190;16.366;2023-06-19T05:25:55;36.60;79.70
33645;DHT22;19986;48.190;16.366;2023-06-19T05:28:21;36.50;77.70
33645;DHT22;19986;48.190;16.366;2023-06-19T05:30:46;35.00;78.30
33645;DHT22;19986;48.190;16.366;2023-06-19T05:33:12;33.00;81.00
33645;DHT22;19986;48.190;16.366;2023-06-19T05:35:42;31.40;84.10
33645;DHT22;19986;48.190;16.366;2023-06-19T05:38:09;30.10;86.70
33645;DHT22;19986;48.190;16.366;2023-06-19T05:40:35;29.10;89.00
33645;DHT22;19986;48.190;16.366;2023-06-19T05:43:01;28.30;90.30
33645;DHT22;19986;48.190;16.366;2023-06-19T05:45:27;27.80;91.00
33645;DHT22;19986;48.190;16.366;2023-06-19T05:47:53;27.40;91.50
33645;DHT22;19986;48.190;16.366;2023-06-19T05:50:19;27.10;92.00
33645;DHT22;19986;48.190;16.366;2023-06-19T05:52:45;26.90;92.30
33645;DHT22;19986;48.190;16.366;2023-06-19T05:55:11;26.60;92.50
33645;DHT22;19986;48.190;16.366;2023-06-19T05:57:37;26.50;92.70
33645;DHT22;19986;48.190;16.366;2023-06-19T06:00:04;26.30;92.70
33645;DHT22;19986;48.190;16.366;2023-06-19T06:02:31;26.30;92.50
33645;DHT22;19986;48.190;16.366;2023-06-19T06:04:57;26.30;92.40
33645;DHT22;19986;48.190;16.366;2023-06-19T06:07:23;26.10;92.40
33645;DHT22;19986;48.190;16.366;2023-06-19T06:09:49;26.10;92.30
33645;DHT22;19986;48.190;16.366;2023-06-19T06:12:14;26.10;92.40
33645;DHT22;19986;48.190;16.366;2023-06-19T06:14:41;26.10;92.30
33645;DHT22;19986;48.190;16.366;2023-06-19T06:17:07;26.10;92.20
33645;DHT22;19986;48.190;16.366;2023-06-19T06:19:33;26.10;92.30
33645;DHT22;19986;48.190;16.366;2023-06-19T06:21:59;26.00;92.40
33645;DHT22;19986;48.190;16.366;2023-06-19T06:24:24;26.00;92.40
33645;DHT22;19986;48.190;16.366;2023-06-19T06:26:50;26.10;92.40
33645;DHT22;19986;48.190;16.366;2023-06-19T06:29:16;26.20;92.20
33645;DHT22;19986;48.190;16.366;2023-06-19T06:31:46;26.20;91.70
33645;DHT22;19986;48.190;16.366;2023-06-19T06:34:13;26.20;91.70
33645;DHT22;19986;48.190;16.366;2023-06-19T06:36:39;26.30;91.70
33645;DHT22;19986;48.190;16.366;2023-06-19T06:39:05;26.40;91.40
33645;DHT22;19986;48.190;16.366;2023-06-19T06:41:31;26.50;91.50
33645;DHT22;19986;48.190;16.366;2023-06-19T06:43:57;26.40;91.60
33645;DHT22;19986;48.190;16.366;2023-06-19T06:46:23;26.50;91.60
33645;DHT22;19986;48.190;16.366;2023-06-19T06:48:49;26.50;91.60
33645;DHT22;19986;48.190;16.366;2023-06-19T06:51:15;26.60;91.60
33645;DHT22;19986;48.190;16.366;2023-06-19T06:53:41;26.70;91.60
33645;DHT22;19986;48.190;16.366;2023-06-19T06:56:07;26.70;91.60
33645;DHT22;19986;48.190;16.366;2023-06-19T06:58:33;26.70;91.40
33645;DHT22;19986;48.190;16.366;2023-06-19T07:00:59;26.70;91.30
33645;DHT22;19986;48.190;16.366;2023-06-19T07:03:24;26.80;91.40
33645;DHT22;19986;48.190;16.366;2023-06-19T07:05:50;26.90;91.00
33645;DHT22;19986;48.190;16.366;2023-06-19T07:08:16;26.90;90.90
33645;DHT22;19986;48.190;16.366;2023-06-19T07:10:42;26.80;91.10
33645;DHT22;19986;48.190;16.366;2023-06-19T07:13:08;26.80;91.20
33645;DHT22;19986;48.190;16.366;2023-06-19T07:15:34;26.90;91.20
33645;DHT22;19986;48.190;16.366;2023-06-19T07:18:00;27.00;91.20
33645;DHT22;19986;48.190;16.366;2023-06-19T07:20:25;27.10;91.00
33645;DHT22;19986;48.190;16.366;2023-06-19T07:22:52;27.10;91.00
33645;DHT22;19986;48.190;16.366;2023-06-19T07:25:18;27.20;91.00
33645;DHT22;19986;48.190;16.366;2023-06-19T07:27:44;27.30;90.90
33645;DHT22;19986;48.190;16.366;2023-06-19T07:30:10;27.40;90.70
33645;DHT22;19986;48.190;16.366;2023-06-19T07:32:37;27.40;90.50
33645;DHT22;19986;48.190;16.366;2023-06-19T07:35:05;27.40;90.60
33645;DHT22;19986;48.190;16.366;2023-06-19T07:37:33;27.50;90.60
33645;DHT22;19986;48.190;16.366;2023-06-19T07:39:58;27.60;90.40
33645;DHT22;19986;48.190;16.366;2023-06-19T07:42:25;27.60;90.80
33645;DHT22;19986;48.190;16.366;2023-06-19T07:44:51;27.80;90.50
33645;DHT22;19986;48.190;16.366;2023-06-19T07:47:18;27.90;89.80
33645;DHT22;19986;48.190;16.366;2023-06-19T07:49:44;27.80;90.00
33645;DHT22;19986;48.190;16.366;2023-06-19T07:52:11;27.90;90.00
33645;DHT22;19986;48.190;16.366;2023-06-19T07:54:51;28.00;90.10
33645;DHT22;19986;48.190;16.366;2023-06-19T07:57:17;28.10;90.00
33645;DHT22;19986;48.190;16.366;2023-06-19T07:59:43;28.00;90.10
33645;DHT22;19986;48.190;16.366;2023-06-19T08:02:10;28.00;90.20
33645;DHT22;19986;48.190;16.366;2023-06-19T08:04:36;28.10;90.30
33645;DHT22;19986;48.190;16.366;2023-06-19T08:07:02;28.20;90.20
33645;DHT22;19986;48.190;16.366;2023-06-19T08:09:28;28.10;90.20
33645;DHT22;19986;48.190;16.366;2023-06-19T08:11:54;28.10;90.40
33645;DHT22;19986;48.190;16.366;2023-06-19T08:14:20;28.20;90.60
33645;DHT22;19986;48.190;16.366;2023-06-19T08:16:46;28.30;90.70
33645;DHT22;19986;48.190;16.366;2023-06-19T08:19:11;28.50;90.70
33645;DHT22;19986;48.190;16.366;2023-06-19T08:21:37;28.70;90.90
33645;DHT22;19986;48.190;16.366;2023-06-19T08:24:03;29.00;90.90
33645;DHT22;19986;48.190;16.366;2023-06-19T08:26:36;29.90;91.30
33645;DHT22;19986;48.190;16.366;2023-06-19T08:29:02;31.60;90.00
33645;DHT22;19986;48.190;16.366;2023-06-19T08:31:28;33.80;85.90
33645;DHT22;19986;48.190;16.366;2023-06-19T08:33:56;35.90;81.60
33645;DHT22;19986;48.190;16.366;2023-06-19T08:36:22;37.90;77.50
33645;DHT22;19986;48.190;16.366;2023-06-19T08:38:48;39.60;73.70
33645;DHT22;19986;48.190;16.366;2023-06-19T08:41:16;40.60;70.50
33645;DHT22;19986;48.190;16.366;2023-06-19T08:43:44;41.40;69.80
33645;DHT22;19986;48.190;16.366;2023-06-19T08:46:13;42.20;67.40
33645;DHT22;19986;48.190;16.366;2023-06-19T08:48:40;42.80;66.10
33645;DHT22;19986;48.190;16.366;2023-06-19T08:51:07;43.50;65.20
33645;DHT22;19986;48.190;16.366;2023-06-19T08:53:34;44.10;61.90
33645;DHT22;19986;48.190;16.366;2023-06-19T08:56:04;43.70;62.50
33645;DHT22;19986;48.190;16.366;2023-06-19T08:58:30;43.70;62.60
33645;DHT22;19986;48.190;16.366;2023-06-19T09:00:59;44.10;62.30
33645;DHT22;19986;48.190;16.366;2023-06-19T09:03:25;44.60;61.10
33645;DHT22;19986;48.190;16.366;2023-06-19T09:05:51;44.80;59.60
33645;DHT22;19986;48.190;16.366;2023-06-19T09:08:19;44.40;59.80
33645;DHT22;19986;48.190;16.366;2023-06-19T09:11:04;44.20;59.50
33645;DHT22;19986;48.190;16.366;2023-06-19T09:13:31;43.70;60.00
33645;DHT22;19986;48.190;16.366;2023-06-19T09:16:05;43.90;60.30
33645;DHT22;19986;48.190;16.366;2023-06-19T09:18:43;44.40;59.90
33645;DHT22;19986;48.190;16.366;2023-06-19T09:21:18;44.80;58.90
33645;DHT22;19986;48.190;16.366;2023-06-19T09:23:46;44.50;58.60
33645;DHT22;19986;48.190;16.366;2023-06-19T09:26:15;44.40;58.70
33645;DHT22;19986;48.190;16.366;2023-06-19T09:28:42;44.10;59.00
33645;DHT22;19986;48.190;16.366;2023-06-19T09:31:10;44.20;59.10
33645;DHT22;19986;48.190;16.366;2023-06-19T09:33:37;44.40;58.50
33645;DHT22;19986;48.190;16.366;2023-06-19T09:36:05;44.40;58.90
33645;DHT22;19986;48.190;16.366;2023-06-19T09:38:36;44.40;58.30
33645;DHT22;19986;48.190;16.366;2023-06-19T09:41:05;44.10;58.30
33645;DHT22;19986;48.190;16.366;2023-06-19T09:43:40;44.40;58.40
33645;DHT22;19986;48.190;16.366;2023-06-19T09:46:07;44.70;57.90
33645;DHT22;19986;48.190;16.366;2023-06-19T09:48:34;44.80;57.60
33645;DHT22;19986;48.190;16.366;2023-06-19T09:53:48;44.30;57.20
33645;DHT22;19986;48.190;16.366;2023-06-19T09:56:15;44.00;57.90
33645;DHT22;19986;48.190;16.366;2023-06-19T09:58:42;44.00;58.50
33645;DHT22;19986;48.190;16.366;2023-06-19T10:01:09;44.30;58.60
33645;DHT22;19986;48.190;16.366;2023-06-19T10:03:36;44.90;58.20
33645;DHT22;19986;48.190;16.366;2023-06-19T10:06:03;45.20;57.60
33645;DHT22;19986;48.190;16.366;2023-06-19T10:08:41;44.60;57.40
33645;DHT22;19986;48.190;16.366;2023-06-19T10:11:08;44.20;57.60
33645;DHT22;19986;48.190;16.366;2023-06-19T10:13:36;43.80;57.90
33645;DHT22;19986;48.190;16.366;2023-06-19T10:16:04;44.00;57.90
33645;DHT22;19986;48.190;16.366;2023-06-19T10:18:32;43.90;58.00
33645;DHT22;19986;48.190;16.366;2023-06-19T10:20:58;43.20;58.50
33645;DHT22;19986;48.190;16.366;2023-06-19T10:23:25;43.10;58.90
33645;DHT22;19986;48.190;16.366;2023-06-19T10:28:24;44.20;57.60
33645;DHT22;19986;48.190;16.366;2023-06-19T10:30:57;44.30;57.20
33645;DHT22;19986;48.190;16.366;2023-06-19T10:33:25;43.80;57.20
33645;DHT22;19986;48.190;16.366;2023-06-19T10:35:52;43.70;57.60
33645;DHT22;19986;48.190;16.366;2023-06-19T10:38:18;43.50;57.30
33645;DHT22;19986;48.190;16.366;2023-06-19T10:40:45;43.50;57.60
33645;DHT22;19986;48.190;16.366;2023-06-19T10:43:12;44.00;57.80
33645;DHT22;19986;48.190;16.366;2023-06-19T10:45:38;44.00;57.60
33645;DHT22;19986;48.190;16.366;2023-06-19T10:48:04;43.70;57.60
33645;DHT22;19986;48.190;16.366;2023-06-19T10:50:35;43.40;57.30
33645;DHT22;19986;48.190;16.366;2023-06-19T10:53:04;43.30;58.20
33645;DHT22;19986;48.190;16.366;2023-06-19T10:55:30;43.10;58.30
33645;DHT22;19986;48.190;16.366;2023-06-19T10:57:56;43.20;58.60
33645;DHT22;19986;48.190;16.366;2023-06-19T11:00:29;43.30;58.40
33645;DHT22;19986;48.190;16.366;2023-06-19T11:02:56;43.10;58.80
33645;DHT22;19986;48.190;16.366;2023-06-19T11:05:23;43.40;58.90
33645;DHT22;19986;48.190;16.366;2023-06-19T11:07:54;43.50;58.20
33645;DHT22;19986;48.190;16.366;2023-06-19T11:10:22;43.10;57.80
33645;DHT22;19986;48.190;16.366;2023-06-19T11:12:53;42.90;58.20
33645;DHT22;19986;48.190;16.366;2023-06-19T11:15:19;42.90;58.60
33645;DHT22;19986;48.190;16.366;2023-06-19T11:17:45;42.70;58.60
33645;DHT22;19986;48.190;16.366;2023-06-19T11:20:12;42.20;58.00
33645;DHT22;19986;48.190;16.366;2023-06-19T11:22:40;41.60;59.20
33645;DHT22;19986;48.190;16.366;2023-06-19T11:25:08;41.50;59.80
33645;DHT22;19986;48.190;16.366;2023-06-19T11:27:37;41.70;59.60
33645;DHT22;19986;48.190;16.366;2023-06-19T11:30:05;41.80;59.70
33645;DHT22;19986;48.190;16.366;2023-06-19T11:32:38;42.10;59.30
33645;DHT22;19986;48.190;16.366;2023-06-19T11:35:11;42.40;58.60
33645;DHT22;19986;48.190;16.366;2023-06-19T11:37:42;42.20;58.20
33645;DHT22;19986;48.190;16.366;2023-06-19T11:40:09;42.10;57.90
33645;DHT22;19986;48.190;16.366;2023-06-19T11:42:52;41.80;58.50
33645;DHT22;19986;48.190;16.366;2023-06-19T11:45:18;41.50;58.50
33645;DHT22;19986;48.190;16.366;2023-06-19T11:47:44;41.30;57.60
33645;DHT22;19986;48.190;16.366;2023-06-19T11:50:11;41.20;57.90
33645;DHT22;19986;48.190;16.366;2023-06-19T11:52:37;41.20;57.10
33645;DHT22;19986;48.190;16.366;2023-06-19T11:55:03;41.40;56.70
33645;DHT22;19986;48.190;16.366;2023-06-19T11:57:31;41.20;56.20
33645;DHT22;19986;48.190;16.366;2023-06-19T11:59:58;41.10;57.20
33645;DHT22;19986;48.190;16.366;2023-06-19T12:02:24;40.70;56.20
33645;DHT22;19986;48.190;16.366;2023-06-19T12:04:50;40.50;56.80
33645;DHT22;19986;48.190;16.366;2023-06-19T12:07:16;40.30;57.60
33645;DHT22;19986;48.190;16.366;2023-06-19T12:09:43;40.30;56.70
33645;DHT22;19986;48.190;16.366;2023-06-19T12:12:09;40.10;56.60
33645;DHT22;19986;48.190;16.366;2023-06-19T12:14:35;40.00;57.10
33645;DHT22;19986;48.190;16.366;2023-06-19T12:17:01;39.80;57.80
33645;DHT22;19986;48.190;16.366;2023-06-19T12:19:29;39.70;57.90
33645;DHT22;19986;48.190;16.366;2023-06-19T12:21:55;39.50;56.90
33645;DHT22;19986;48.190;16.366;2023-06-19T12:24:22;38.90;56.60
33645;DHT22;19986;48.190;16.366;2023-06-19T12:26:48;38.70;56.20
33645;DHT22;19986;48.190;16.366;2023-06-19T12:29:14;38.50;57.60
33645;DHT22;19986;48.190;16.366;2023-06-19T12:31:40;38.10;57.80
33645;DHT22;19986;48.190;16.366;2023-06-19T12:34:06;37.80;56.10
33645;DHT22;19986;48.190;16.366;2023-06-19T12:36:31;37.40;55.00
33645;DHT22;19986;48.190;16.366;2023-06-19T12:38:59;37.10;56.90
33645;DHT22;19986;48.190;16.366;2023-06-19T12:41:24;36.90;58.70
33645;DHT22;19986;48.190;16.366;2023-06-19T12:43:50;36.60;59.10
33645;DHT22;19986;48.190;16.366;2023-06-19T12:46:16;36.40;59.60
33645;DHT22;19986;48.190;16.366;2023-06-19T12:48:42;36.10;59.70
33645;DHT22;19986;48.190;16.366;2023-06-19T12:51:08;35.80;60.00
33645;DHT22;19986;48.190;16.366;2023-06-19T12:53:34;35.60;60.20
33645;DHT22;19986;48.190;16.366;2023-06-19T12:56:00;35.50;60.40
33645;DHT22;19986;48.190;16.366;2023-06-19T12:58:26;35.20;62.00
33645;DHT22;19986;48.190;16.366;2023-06-19T13:00:53;35.10;61.70
33645;DHT22;19986;48.190;16.366;2023-06-19T13:03:19;35.00;61.50
33645;DHT22;19986;48.190;16.366;2023-06-19T13:05:48;35.00;61.60
33645;DHT22;19986;48.190;16.366;2023-06-19T13:08:14;35.00;61.60
33645;DHT22;19986;48.190;16.366;2023-06-19T13:10:40;34.90;61.40
33645;DHT22;19986;48.190;16.366;2023-06-19T13:13:06;35.00;61.60
33645;DHT22;19986;48.190;16.366;2023-06-19T13:15:32;35.00;61.90
33645;DHT22;19986;48.190;16.366;2023-06-19T13:18:01;35.00;61.80
33645;DHT22;19986;48.190;16.366;2023-06-19T13:20:27;35.00;61.60
33645;DHT22;19986;48.190;16.366;2023-06-19T13:22:53;34.90;61.60
33645;DHT22;19986;48.190;16.366;2023-06-19T13:25:19;34.90;61.70
33645;DHT22;19986;48.190;16.366;2023-06-19T13:27:45;34.90;61.80
33645;DHT22;19986;48.190;16.366;2023-06-19T13:30:12;34.80;62.00
33645;DHT22;19986;48.190;16.366;2023-06-19T13:32:38;34.90;62.10
33645;DHT22;19986;48.190;16.366;2023-06-19T13:35:05;34.80;62.40
33645;DHT22;19986;48.190;16.366;2023-06-19T13:37:33;34.80;62.10
33645;DHT22;19986;48.190;16.366;2023-06-19T13:39:58;34.70;62.00
33645;DHT22;19986;48.190;16.366;2023-06-19T13:42:27;34.70;62.10
33645;DHT22;19986;48.190;16.366;2023-06-19T13:44:52;34.70;61.90
33645;DHT22;19986;48.190;16.366;2023-06-19T13:47:18;34.70;62.80
33645;DHT22;19986;48.190;16.366;2023-06-19T13:49:44;34.70;63.20
33645;DHT22;19986;48.190;16.366;2023-06-19T13:52:10;34.80;63.20
33645;DHT22;19986;48.190;16.366;2023-06-19T13:54:36;34.80;63.00
33645;DHT22;19986;48.190;16.366;2023-06-19T13:57:02;34.80;62.70
33645;DHT22;19986;48.190;16.366;2023-06-19T13:59:29;34.80;62.20
33645;DHT22;19986;48.190;16.366;2023-06-19T14:01:55;34.60;62.00
33645;DHT22;19986;48.190;16.366;2023-06-19T14:04:21;34.50;62.30
33645;DHT22;19986;48.190;16.366;2023-06-19T14:06:47;34.50;62.50
33645;DHT22;19986;48.190;16.366;2023-06-19T14:09:13;34.60;62.40
33645;DHT22;19986;48.190;16.366;2023-06-19T14:11:40;34.70;62.30
33645;DHT22;19986;48.190;16.366;2023-06-19T14:14:06;34.80;62.40
33645;DHT22;19986;48.190;16.366;2023-06-19T14:16:33;34.60;62.40
33645;DHT22;19986;48.190;16.366;2023-06-19T14:18:58;34.60;62.80
33645;DHT22;19986;48.190;16.366;2023-06-19T14:21:24;34.60;62.10
33645;DHT22;19986;48.190;16.366;2023-06-19T14:24:05;34.60;61.90
33645;DHT22;19986;48.190;16.366;2023-06-19T14:26:31;34.60;62.50
33645;DHT22;19986;48.190;16.366;2023-06-19T14:28:58;34.60;62.50
33645;DHT22;19986;48.190;16.366;2023-06-19T14:31:24;34.70;62.40
33645;DHT22;19986;48.190;16.366;2023-06-19T14:33:50;34.70;62.50
33645;DHT22;19986;48.190;16.366;2023-06-19T14:36:16;34.80;62.70
33645;DHT22;19986;48.190;16.366;2023-06-19T14:38:42;34.80;62.30
33645;DHT22;19986;48.190;16.366;2023-06-19T14:41:08;34.70;62.60
33645;DHT22;19986;48.190;16.366;2023-06-19T14:43:33;34.80;62.60
33645;DHT22;19986;48.190;16.366;2023-06-19T14:46:01;34.80;61.80
33645;DHT22;19986;48.190;16.366;2023-06-19T14:48:29;34.80;61.50
33645;DHT22;19986;48.190;16.366;2023-06-19T14:50:56;34.70;61.60
33645;DHT22;19986;48.190;16.366;2023-06-19T14:53:22;34.70;61.60
33645;DHT22;19986;48.190;16.366;2023-06-19T14:55:48;34.80;61.80
33645;DHT22;19986;48.190;16.366;2023-06-19T14:58:14;34.80;61.60
33645;DHT22;19986;48.190;16.366;2023-06-19T15:00:41;34.80;61.80
33645;DHT22;19986;48.190;16.366;2023-06-19T15:03:07;34.70;62.30
33645;DHT22;19986;48.190;16.366;2023-06-19T15:05:33;34.70;62.50
33645;DHT22;19986;48.190;16.366;2023-06-19T15:07:59;34.60;62.60
33645;DHT22;19986;48.190;16.366;2023-06-19T15:10:27;34.50;62.80
33645;DHT22;19986;48.190;16.366;2023-06-19T15:12:54;34.50;63.40
33645;DHT22;19986;48.190;16.366;2023-06-19T15:15:20;34.60;62.40
33645;DHT22;19986;48.190;16.366;2023-06-19T15:17:46;34.50;62.60
33645;DHT22;19986;48.190;16.366;2023-06-19T15:20:11;34.40;62.40
33645;DHT22;19986;48.190;16.366;2023-06-19T15:22:53;34.30;62.60
33645;DHT22;19986;48.190;16.366;2023-06-19T15:25:19;34.30;62.30